Aérodrome :
LOGIN :

S'inscrire | Disclaimer

   EN    FR    IT 

 










Légende :    VFR   VFR Marginal   IFR   IFR Intensif   IFR Très Intensif
Visi : 
Plafond : 
>= 8 km
>= 3000ft
5 à 8 km
1000 à 3000 ft
1500m à 5 km
500 à 1000 ft
800 à 1500m
200 à 500 ft
< 800m
< 200 ft
Symboles :   Orages  Brouillard  Fortes neiges  Fortes précipitations  Vent > 20 kt
SIGMETs :   Divers  Orages  Givrage  Turbulence  Onde Orograph.  Cendres Volcan.







- Altitude de l'aérodrome : 144 ft
- Code IATA : PGF
- Voir les cartes d'approche


LFMP - Perpignan

DERNIER METAR :
  • 221930Z AUTO 06004KT 9999 NCD 17/14 Q1017 TEMPO 1200 BR BKN013

METARs EXPIRÉS :
  • 221900Z AUTO 05005KT 9999 NCD 17/14 Q1016 TEMPO 1200 BR BKN013
  • 221830Z AUTO 07005KT 9999 NCD 17/14 Q1016 TEMPO 1200 BR BKN013
  • 221800Z AUTO 05004KT 010V080 9999 NCD 18/14 Q1016 TEMPO 1200 BR BKN013
  • 221730Z AUTO 05006KT 9999 NCD 19/13 Q1016 TEMPO 1200 BR BKN013
  • 221700Z AUTO 08006KT 040V100 9999 NCD 20/14 Q1016 NOSIG

TAF TAF LFMP
Valide du 22 à 15h jusqu'au 23 à 15h UTC


221400Z 2215/2315 VRB02KT CAVOK
TEMPO 2215/2218 08012KT
TEMPO 2219/2306 1200 BR BKN013
TEMPO 2311/2315 10012KT
PROB30
TEMPO 2313/2315 VRB15G25KT SHRA BKN050TCU
ATIS : +33 4 68 63 75 12
Pas de NOTAMs connus pour ce terrain.



MET'MAP, la Météo Aéronautique d'un coup d'oeil ! - Copyright ORBIFLY Décembre 2007 - Disclaimer

ORBIFLY MET'MAP TEAM :

Programmation & Développement : Alexandra Zaïnal
Conception & Développement : Baudouin d'Aumeries
Co-Programmation & Développement : Marc-Olivier Méhu
Soutien technique & logistique : Manuel Goepfert

Contact : metmap@orbifly.com




SOURCES & CREDITS :

   NOAA